createdAt,value
2022-10-13T00:00:55.465Z,30.70
2022-10-13T00:03:22.223Z,33.60
2022-10-13T00:05:49.568Z,30.10
2022-10-13T00:08:19.375Z,31.80
2022-10-13T00:10:47.478Z,29.80
2022-10-13T00:13:14.341Z,29.60
2022-10-13T00:18:08.170Z,29.10
2022-10-13T00:23:01.707Z,30.00
2022-10-13T00:25:28.366Z,27.30
2022-10-13T00:27:55.015Z,30.00
2022-10-13T00:30:23.242Z,25.90
2022-10-13T00:32:50.443Z,27.10
2022-10-13T00:35:17.299Z,35.00
2022-10-13T00:40:11.258Z,31.00
2022-10-13T00:42:40.825Z,26.60
2022-10-13T00:45:29.527Z,30.40
2022-10-13T00:47:57.943Z,26.90
2022-10-13T00:50:27.772Z,26.60
2022-10-13T00:52:54.798Z,27.90
2022-10-13T00:55:23.014Z,27.70
2022-10-13T00:57:54.603Z,28.60
2022-10-13T01:00:25.664Z,36.20
2022-10-13T01:02:52.405Z,54.30
2022-10-13T01:07:49.300Z,46.60
2022-10-13T01:10:27.950Z,34.20
2022-10-13T01:13:02.093Z,29.50
2022-10-13T01:15:35.837Z,37.30
2022-10-13T01:18:10.418Z,33.20
2022-10-13T01:20:47.859Z,32.80
2022-10-13T01:23:27.676Z,29.50
2022-10-13T01:26:24.850Z,28.80
2022-10-13T01:29:22.922Z,24.80
2022-10-13T01:31:59.367Z,21.00
2022-10-13T01:34:44.542Z,25.10
2022-10-13T01:37:16.671Z,32.20
2022-10-13T01:40:04.423Z,28.40
2022-10-13T01:42:43.092Z,27.30
2022-10-13T01:45:12.534Z,26.60
2022-10-13T01:47:39.186Z,26.20
2022-10-13T01:50:06.801Z,29.00
2022-10-13T01:52:35.985Z,23.50
2022-10-13T01:55:10.341Z,21.10
2022-10-13T01:57:39.566Z,26.80
2022-10-13T02:00:17.109Z,21.70
2022-10-13T02:03:08.648Z,34.30
2022-10-13T02:05:43.922Z,27.60
2022-10-13T02:08:13.065Z,25.30
2022-10-13T02:10:52.836Z,25.60
2022-10-13T02:13:20.205Z,23.90
2022-10-13T02:15:49.308Z,25.50
2022-10-13T02:18:18.900Z,25.20
2022-10-13T02:20:46.042Z,24.10
2022-10-13T02:23:14.303Z,23.10
2022-10-13T02:25:40.971Z,26.50
2022-10-13T02:28:07.677Z,22.60
2022-10-13T02:30:42.199Z,21.40
2022-10-13T02:33:08.908Z,19.20
2022-10-13T02:35:37.461Z,23.20
2022-10-13T02:40:31.008Z,18.20
2022-10-13T02:45:24.591Z,21.10
2022-10-13T02:47:55.744Z,20.10
2022-10-13T02:50:22.474Z,21.70
2022-10-13T02:52:50.279Z,17.10
2022-10-13T02:55:16.978Z,20.30
2022-10-13T02:57:43.969Z,16.40
2022-10-13T03:00:11.526Z,20.00
2022-10-13T03:02:38.183Z,16.80
2022-10-13T03:05:05.281Z,16.70
2022-10-13T03:07:31.936Z,18.40
2022-10-13T03:09:58.587Z,14.80
2022-10-13T03:12:25.259Z,20.40
2022-10-13T03:14:51.921Z,16.90
2022-10-13T03:17:18.647Z,16.50
2022-10-13T03:19:45.362Z,15.80
2022-10-13T03:22:15.395Z,18.60
2022-10-13T03:24:42.514Z,15.70
2022-10-13T03:27:09.337Z,18.00
2022-10-13T03:32:02.642Z,16.00
2022-10-13T03:34:29.426Z,13.70
2022-10-13T03:36:56.079Z,15.40
2022-10-13T03:39:22.741Z,14.60
2022-10-13T03:41:49.755Z,25.20
2022-10-13T03:44:16.447Z,22.50
2022-10-13T03:46:43.158Z,20.10
2022-10-13T03:49:11.340Z,16.70
2022-10-13T03:51:38.367Z,15.10
2022-10-13T03:54:05.088Z,20.30
2022-10-13T03:56:31.860Z,18.30
2022-10-13T04:01:28.029Z,16.40
2022-10-13T04:03:55.748Z,18.00
2022-10-13T04:06:22.944Z,16.50
2022-10-13T04:08:49.764Z,19.50
2022-10-13T04:13:43.402Z,15.30
2022-10-13T04:18:44.450Z,20.60
2022-10-13T04:21:13.415Z,30.90
2022-10-13T04:23:40.082Z,33.50
2022-10-13T04:26:06.796Z,24.90
2022-10-13T04:31:04.262Z,22.10
2022-10-13T04:35:57.692Z,16.80
2022-10-13T04:40:51.167Z,36.80
2022-10-13T04:45:12.174Z,23.20
2022-10-13T04:47:40.277Z,27.90
2022-10-13T04:52:34.979Z,18.70
2022-10-13T04:55:04.168Z,26.20
2022-10-13T04:57:30.833Z,19.90
2022-10-13T04:59:57.540Z,23.10
2022-10-13T05:02:24.206Z,23.30
2022-10-13T05:04:50.893Z,18.90
2022-10-13T05:07:18.919Z,23.50
2022-10-13T05:09:46.711Z,23.80
2022-10-13T05:12:13.389Z,19.30
2022-10-13T05:14:40.060Z,49.50
2022-10-13T05:17:07.601Z,32.10
2022-10-13T05:22:01.080Z,30.80
2022-10-13T05:24:36.769Z,29.40
2022-10-13T05:27:05.682Z,19.20
2022-10-13T05:29:34.674Z,20.90
2022-10-13T05:32:01.365Z,19.70
2022-10-13T05:34:28.058Z,32.50
2022-10-13T05:36:54.718Z,25.40
2022-10-13T05:39:21.506Z,19.10
2022-10-13T05:44:20.267Z,17.50
2022-10-13T05:46:53.353Z,17.40
2022-10-13T05:51:48.061Z,22.40
2022-10-13T05:54:34.163Z,20.80
2022-10-13T05:57:14.852Z,26.80
2022-10-13T05:59:44.335Z,21.30
2022-10-13T06:02:12.198Z,19.30
2022-10-13T06:04:41.565Z,22.00
2022-10-13T06:07:08.348Z,22.20
2022-10-13T06:09:36.304Z,19.10
2022-10-13T06:12:03.233Z,19.60
2022-10-13T06:14:30.334Z,18.70
2022-10-13T06:16:57.009Z,30.90
2022-10-13T06:19:23.754Z,41.30
2022-10-13T06:24:17.152Z,24.80
2022-10-13T06:29:10.667Z,50.40
2022-10-13T06:31:37.532Z,29.50
2022-10-13T06:36:31.531Z,26.60
2022-10-13T06:38:58.648Z,58.80
2022-10-13T06:41:25.502Z,53.90
2022-10-13T06:46:21.108Z,39.20
2022-10-13T06:51:17.981Z,34.30
2022-10-13T06:53:45.121Z,25.70
2022-10-13T06:58:38.583Z,23.20
2022-10-13T07:03:32.451Z,24.10
2022-10-13T07:06:02.931Z,22.20
2022-10-13T07:08:29.924Z,15.40
2022-10-13T07:10:56.935Z,26.00
2022-10-13T07:13:23.656Z,22.70
2022-10-13T07:15:50.546Z,29.70
2022-10-13T07:18:17.234Z,41.70
2022-10-13T07:20:44.654Z,37.60
2022-10-13T07:23:11.346Z,35.50
2022-10-13T07:25:38.063Z,35.90
2022-10-13T07:28:05.220Z,38.60
2022-10-13T07:33:00.094Z,43.60
2022-10-13T07:35:30.512Z,44.60
2022-10-13T07:37:57.994Z,35.70
2022-10-13T07:42:51.661Z,31.30
2022-10-13T07:47:45.122Z,33.30
2022-10-13T07:52:38.813Z,39.00
2022-10-13T07:57:39.615Z,35.10
2022-10-13T08:00:06.904Z,42.20
2022-10-13T08:02:39.040Z,31.60
2022-10-13T08:05:05.865Z,47.70
2022-10-13T08:07:32.609Z,44.70
2022-10-13T08:12:26.037Z,51.00
2022-10-13T08:17:19.639Z,37.40
2022-10-13T08:19:46.566Z,41.80
2022-10-13T08:24:39.962Z,31.40
2022-10-13T08:27:06.724Z,28.30
2022-10-13T08:29:35.633Z,34.10
2022-10-13T08:34:29.465Z,32.00
2022-10-13T08:36:57.364Z,31.00
2022-10-13T08:39:24.348Z,35.10
2022-10-13T08:41:51.340Z,268.50
2022-10-13T08:45:06.384Z,85.50
2022-10-13T08:47:44.948Z,45.30
2022-10-13T08:50:14.447Z,25.80
2022-10-13T08:52:54.109Z,32.00
2022-10-13T08:55:29.859Z,27.70
2022-10-13T08:57:57.014Z,29.50
2022-10-13T09:00:27.135Z,26.10
2022-10-13T09:02:54.256Z,26.70
2022-10-13T09:05:40.561Z,31.20
2022-10-13T09:08:12.485Z,25.10
2022-10-13T09:11:00.172Z,19.10
2022-10-13T09:13:27.581Z,23.50
2022-10-13T09:15:56.744Z,22.00
2022-10-13T09:18:30.668Z,21.10
2022-10-13T09:21:21.259Z,24.60
2022-10-13T09:23:50.208Z,23.80
2022-10-13T09:26:22.047Z,27.90
2022-10-13T09:28:49.563Z,26.00
2022-10-13T09:31:35.797Z,45.90
2022-10-13T09:34:12.374Z,40.30
2022-10-13T09:36:39.359Z,55.50
2022-10-13T09:39:16.160Z,48.70
2022-10-13T09:41:44.725Z,48.80
2022-10-13T09:44:18.767Z,42.80
2022-10-13T09:46:51.748Z,44.40
2022-10-13T09:49:36.431Z,47.70
2022-10-13T09:52:14.578Z,54.30
2022-10-13T09:54:45.370Z,36.90
2022-10-13T09:57:17.540Z,38.70
2022-10-13T09:59:50.321Z,44.50
2022-10-13T10:02:29.448Z,42.80
2022-10-13T10:04:58.467Z,37.00
2022-10-13T10:07:27.339Z,39.10
2022-10-13T10:10:01.026Z,30.60
2022-10-13T10:12:29.694Z,32.30
2022-10-13T10:14:56.735Z,36.10
2022-10-13T10:17:35.071Z,31.80
2022-10-13T10:20:14.452Z,33.80
2022-10-13T10:23:01.155Z,28.50
2022-10-13T10:25:39.500Z,31.20
2022-10-13T10:28:44.343Z,32.00
2022-10-13T10:31:30.822Z,28.80
2022-10-13T10:34:14.839Z,30.20
2022-10-13T10:36:52.817Z,31.90
2022-10-13T10:42:04.434Z,24.00
2022-10-13T10:44:33.651Z,24.30
2022-10-13T10:47:09.844Z,33.10
2022-10-13T10:49:39.345Z,25.20
2022-10-13T10:52:08.363Z,19.20
2022-10-13T10:54:49.106Z,19.10
2022-10-13T10:57:26.750Z,12.70
2022-10-13T11:00:07.421Z,21.90
2022-10-13T11:02:52.199Z,13.30
2022-10-13T11:05:19.073Z,12.80
2022-10-13T11:07:46.630Z,12.80
2022-10-13T11:10:13.460Z,15.70
2022-10-13T11:12:52.562Z,17.20
2022-10-13T11:15:24.373Z,24.80
2022-10-13T11:17:51.431Z,18.80
2022-10-13T11:20:21.280Z,15.00
2022-10-13T11:23:00.444Z,14.80
2022-10-13T11:25:46.726Z,16.70
2022-10-13T11:28:22.940Z,15.30
2022-10-13T11:30:51.072Z,17.30
2022-10-13T11:33:39.734Z,12.90
2022-10-13T11:36:43.972Z,8.70
2022-10-13T11:39:27.709Z,16.70
2022-10-13T11:41:57.611Z,11.90
2022-10-13T11:44:46.175Z,8.90
2022-10-13T11:47:58.124Z,13.20
2022-10-13T11:50:39.732Z,18.00
2022-10-13T11:53:32.646Z,11.20
2022-10-13T11:56:01.629Z,11.60
2022-10-13T11:58:32.212Z,14.50
2022-10-13T12:01:02.209Z,11.70
2022-10-13T12:03:31.290Z,20.00
2022-10-13T12:06:01.121Z,16.60
2022-10-13T12:08:28.060Z,8.40
2022-10-13T12:10:57.310Z,9.60
2022-10-13T12:13:25.912Z,11.70
2022-10-13T12:16:05.286Z,11.50
2022-10-13T12:18:34.343Z,12.60
2022-10-13T12:21:03.233Z,11.30
2022-10-13T12:23:31.334Z,11.20
2022-10-13T12:25:58.855Z,12.10
2022-10-13T12:28:31.110Z,22.80
2022-10-13T12:30:59.673Z,12.00
2022-10-13T12:33:35.586Z,13.20
2022-10-13T12:36:22.584Z,10.20
2022-10-13T12:38:50.890Z,9.70
2022-10-13T12:41:19.296Z,7.40
2022-10-13T12:43:46.074Z,8.90
2022-10-13T12:48:40.314Z,18.90
2022-10-13T12:51:16.406Z,17.00
2022-10-13T12:53:44.231Z,7.50
2022-10-13T12:56:19.837Z,10.90
2022-10-13T12:58:46.611Z,8.30
2022-10-13T13:03:40.689Z,11.10
2022-10-13T13:06:14.346Z,11.80
2022-10-13T13:08:42.037Z,11.40
2022-10-13T13:11:32.961Z,11.30
2022-10-13T13:14:25.560Z,7.10
2022-10-13T13:17:06.252Z,9.50
2022-10-13T13:19:34.676Z,9.30
2022-10-13T13:22:01.797Z,10.90
2022-10-13T13:24:39.247Z,18.10
2022-10-13T13:27:18.757Z,8.00
2022-10-13T13:29:45.772Z,8.90
2022-10-13T13:32:14.032Z,11.70
2022-10-13T13:34:40.960Z,8.70
2022-10-13T13:37:35.533Z,10.40
2022-10-13T13:40:02.473Z,10.50
2022-10-13T13:42:29.423Z,11.00
2022-10-13T13:44:56.419Z,6.40
2022-10-13T13:47:24.558Z,10.10
2022-10-13T13:49:53.558Z,9.10
2022-10-13T13:52:21.974Z,10.80
2022-10-13T13:54:49.175Z,9.20
2022-10-13T13:57:16.094Z,8.10
2022-10-13T13:59:42.884Z,13.20
2022-10-13T14:04:40.700Z,19.80
2022-10-13T14:07:07.506Z,32.30
2022-10-13T14:09:34.228Z,46.40
2022-10-13T14:14:30.270Z,79.20
2022-10-13T14:16:57.774Z,55.30
2022-10-13T14:19:24.476Z,34.70
2022-10-13T14:24:18.666Z,40.90
2022-10-13T14:26:45.375Z,43.00
2022-10-13T14:31:38.902Z,29.00
2022-10-13T14:36:32.630Z,26.90
2022-10-13T14:41:26.269Z,37.20
2022-10-13T14:43:54.596Z,35.90
2022-10-13T14:46:21.467Z,37.60
2022-10-13T14:48:48.190Z,29.20
2022-10-13T14:53:55.091Z,35.00
2022-10-13T14:56:23.403Z,32.30
2022-10-13T14:58:54.011Z,26.90
2022-10-13T15:01:20.786Z,29.10
2022-10-13T15:06:15.708Z,29.90
2022-10-13T15:08:42.693Z,27.40
2022-10-13T15:11:09.517Z,28.60
2022-10-13T15:16:04.855Z,35.00
2022-10-13T15:18:32.055Z,30.30
2022-10-13T15:20:58.839Z,31.20
2022-10-13T15:25:59.270Z,31.90
2022-10-13T15:28:28.655Z,25.30
2022-10-13T15:30:55.562Z,112.20
2022-10-13T15:33:22.546Z,53.10
2022-10-13T15:35:50.151Z,61.60
2022-10-13T15:38:17.559Z,62.70
2022-10-13T15:40:44.240Z,45.90
2022-10-13T15:45:37.616Z,51.60
2022-10-13T15:50:34.746Z,62.90
2022-10-13T15:53:01.449Z,67.00
2022-10-13T15:57:55.478Z,63.60
2022-10-13T16:02:49.866Z,69.00
2022-10-13T16:05:16.760Z,72.10
2022-10-13T16:10:12.223Z,56.60
2022-10-13T16:12:39.235Z,55.90
2022-10-13T16:15:06.890Z,62.50
2022-10-13T16:17:33.651Z,55.90
2022-10-13T16:22:27.218Z,54.80
2022-10-13T16:27:20.694Z,58.50
2022-10-13T16:32:13.964Z,66.00
2022-10-13T16:34:40.651Z,66.60
2022-10-13T16:39:34.941Z,58.20
2022-10-13T16:42:03.284Z,59.10
2022-10-13T16:46:58.019Z,45.50
2022-10-13T16:49:26.085Z,59.10
2022-10-13T16:51:52.850Z,52.00
2022-10-13T16:56:46.954Z,50.70
2022-10-13T17:02:05.073Z,66.30
2022-10-13T17:04:31.817Z,54.70
2022-10-13T17:09:25.152Z,53.10
2022-10-13T17:11:51.934Z,63.50
2022-10-13T17:16:45.503Z,57.00
2022-10-13T17:21:39.196Z,60.70
2022-10-13T17:24:08.463Z,58.80
2022-10-13T17:29:02.233Z,49.70
2022-10-13T17:31:29.085Z,52.00
2022-10-13T17:36:24.792Z,46.90
2022-10-13T17:38:51.790Z,50.30
2022-10-13T17:41:18.822Z,50.20
2022-10-13T17:43:48.868Z,52.60
2022-10-13T17:46:39.498Z,50.80
2022-10-13T17:49:07.515Z,59.20
2022-10-13T17:51:34.295Z,68.80
2022-10-13T17:56:28.051Z,75.90
2022-10-13T17:58:55.182Z,68.20
2022-10-13T18:01:26.287Z,67.90
2022-10-13T18:03:54.465Z,90.20
2022-10-13T18:06:32.619Z,100.90
2022-10-13T18:09:05.939Z,118.60
2022-10-13T18:11:33.996Z,97.30
2022-10-13T18:14:00.844Z,123.60
2022-10-13T18:18:54.394Z,101.40
2022-10-13T18:23:55.728Z,81.90
2022-10-13T18:26:22.748Z,85.50
2022-10-13T18:28:49.837Z,89.10
2022-10-13T18:31:32.273Z,86.00
2022-10-13T18:34:00.777Z,81.00
2022-10-13T18:36:29.490Z,78.40
2022-10-13T18:39:00.845Z,80.70
2022-10-13T18:41:27.635Z,86.70
2022-10-13T18:46:22.988Z,83.80
2022-10-13T18:48:50.242Z,86.60
2022-10-13T18:53:46.966Z,80.90
2022-10-13T18:56:15.619Z,86.50
2022-10-13T18:58:42.558Z,77.70
2022-10-13T19:01:11.038Z,82.60
2022-10-13T19:03:38.738Z,80.00
2022-10-13T19:06:09.283Z,74.10
2022-10-13T19:08:36.176Z,76.60
2022-10-13T19:13:36.837Z,66.00
2022-10-13T19:18:30.224Z,60.60
2022-10-13T19:23:24.327Z,71.80
2022-10-13T19:25:51.092Z,68.70
2022-10-13T19:30:44.732Z,62.70
2022-10-13T19:35:48.060Z,53.80
2022-10-13T19:38:15.349Z,54.80
2022-10-13T19:40:43.166Z,55.60
2022-10-13T19:43:10.246Z,55.60
2022-10-13T19:45:37.051Z,56.60
2022-10-13T19:48:07.223Z,65.20
2022-10-13T19:53:00.574Z,62.60
2022-10-13T19:57:54.769Z,72.30
2022-10-13T20:00:21.504Z,85.20
2022-10-13T20:05:15.055Z,84.20
2022-10-13T20:07:41.711Z,79.60
2022-10-13T20:10:08.461Z,69.20
2022-10-13T20:12:37.380Z,73.30
2022-10-13T20:15:04.296Z,71.60
2022-10-13T20:17:30.984Z,97.70
2022-10-13T20:19:57.781Z,79.40
2022-10-13T20:24:51.082Z,78.20
2022-10-13T20:29:44.453Z,76.00
2022-10-13T20:32:11.210Z,81.10
2022-10-13T20:37:04.542Z,77.00
2022-10-13T20:41:57.899Z,72.70
2022-10-13T20:44:24.698Z,65.00
2022-10-13T20:49:21.463Z,68.10
2022-10-13T20:51:48.138Z,70.20
2022-10-13T20:54:15.050Z,72.70
2022-10-13T20:56:41.778Z,65.70
2022-10-13T20:59:10.757Z,59.30
2022-10-13T21:01:37.684Z,64.50
2022-10-13T21:04:04.581Z,60.80
2022-10-13T21:09:00.240Z,58.90
2022-10-13T21:13:54.130Z,52.20
2022-10-13T21:16:29.060Z,54.70
2022-10-13T21:18:56.512Z,48.30
2022-10-13T21:21:25.112Z,45.80
2022-10-13T21:23:52.631Z,46.70
2022-10-13T21:26:21.998Z,50.40
2022-10-13T21:28:49.402Z,42.30
2022-10-13T21:31:16.480Z,48.40
2022-10-13T21:33:43.363Z,43.10
2022-10-13T21:36:12.289Z,42.00
2022-10-13T21:38:41.816Z,47.10
2022-10-13T21:41:09.558Z,47.80
2022-10-13T21:43:36.251Z,36.10
2022-10-13T21:46:12.978Z,47.50
2022-10-13T21:48:43.305Z,40.80
2022-10-13T21:51:18.222Z,40.90
2022-10-13T21:53:52.620Z,37.20
2022-10-13T21:56:19.619Z,34.30
2022-10-13T21:58:46.524Z,42.50
2022-10-13T22:01:13.364Z,37.50
2022-10-13T22:03:41.658Z,37.40
2022-10-13T22:06:18.250Z,37.40
2022-10-13T22:08:46.264Z,48.00
2022-10-13T22:11:13.984Z,45.30
2022-10-13T22:16:09.416Z,39.10
2022-10-13T22:18:40.878Z,53.50
2022-10-13T22:21:09.029Z,57.40
2022-10-13T22:23:35.758Z,47.60
2022-10-13T22:28:32.282Z,41.30
2022-10-13T22:31:05.722Z,41.90
2022-10-13T22:33:33.805Z,41.60
2022-10-13T22:36:00.503Z,42.70
2022-10-13T22:38:27.249Z,44.80
2022-10-13T22:43:20.611Z,33.40
2022-10-13T22:48:20.049Z,40.10
2022-10-13T22:50:46.782Z,44.70
2022-10-13T22:55:40.737Z,45.30
2022-10-13T22:58:07.670Z,44.00
2022-10-13T23:00:37.783Z,46.00
2022-10-13T23:03:04.951Z,42.80
2022-10-13T23:05:31.801Z,48.00
2022-10-13T23:10:25.185Z,49.60
2022-10-13T23:12:51.859Z,43.70
2022-10-13T23:15:18.532Z,55.10
2022-10-13T23:20:12.126Z,52.80
2022-10-13T23:22:38.813Z,47.20
2022-10-13T23:27:32.337Z,51.60
2022-10-13T23:29:59.027Z,46.10
2022-10-13T23:34:52.319Z,37.20
2022-10-13T23:37:19.682Z,33.20
2022-10-13T23:39:46.733Z,38.90
2022-10-13T23:42:13.395Z,37.90
2022-10-13T23:44:40.084Z,40.80
2022-10-13T23:49:33.377Z,33.20
2022-10-13T23:54:26.709Z,41.40
2022-10-13T23:56:53.421Z,43.70
2022-10-13T23:59:20.091Z,36.10
